Time;durP1;ratioP1;P1;durP2;ratioP2;P2;SDS_P1;SDS_P2;PMS_P1;PMS_P2;Temp;Humidity;BMP_temperature;BMP_pressure;BME280_temperature;BME280_humidity;BME280_pressure;Samples;Min_cycle;Max_cycle;Signal;HPM_P1;HPM_P2
2021/12/11 00:00:15;;;;;;;6.00;1.63;;;6.90;93.00;;;6.76;64.15;94091.78;4970946;28;20475;-56
2021/12/11 00:02:43;;;;;;;10.13;2.00;;;6.90;93.20;;;6.78;64.40;94089.84;4970970;28;20525;-59
2021/12/11 00:05:16;;;;;;;2.37;1.30;;;6.90;93.20;;;6.77;64.08;94077.78;4974356;28;20478;-57
2021/12/11 00:07:43;;;;;;;2.90;1.73;;;6.90;93.20;;;6.77;63.79;94083.00;4971997;28;20444;-60
2021/12/11 00:10:15;;;;;;;1.37;1.27;;;6.90;93.20;;;6.78;64.50;94081.19;4973251;28;20455;-56
2021/12/11 00:12:46;;;;;;;1.93;1.43;;;6.90;93.40;;;6.76;64.52;94097.00;4971698;28;20455;-59
2021/12/11 00:15:16;;;;;;;1.70;1.57;;;6.90;93.50;;;6.76;64.88;94106.66;4975497;28;20451;-58
2021/12/11 00:17:43;;;;;;;2.17;1.90;;;6.90;93.60;;;6.74;64.40;94109.41;4971143;28;20454;-57
2021/12/11 00:20:18;;;;;;;3.30;2.33;;;6.90;93.60;;;6.72;64.62;94111.31;4974255;28;20494;-57
2021/12/11 00:22:46;;;;;;;2.23;2.10;;;6.90;93.60;;;6.70;64.33;94113.22;4953511;28;20443;-57
2021/12/11 00:25:15;;;;;;;5.30;1.73;;;6.90;93.60;;;6.68;64.97;94115.16;4977002;28;21030;-59
2021/12/11 00:27:44;;;;;;;8.20;4.57;;;6.80;93.60;;;6.66;64.61;94104.00;4969468;28;20459;-55
2021/12/11 00:30:20;;;;;;;5.90;3.90;;;6.80;93.60;;;6.59;64.57;94115.97;4953775;28;20463;-57
2021/12/11 00:32:47;;;;;;;8.97;4.63;;;6.80;93.60;;;6.56;65.19;94114.44;4971412;28;20451;-58
2021/12/11 00:35:20;;;;;;;8.77;4.63;;;6.80;93.90;;;6.53;64.94;94126.97;4972701;28;20514;-59
2021/12/11 00:37:48;;;;;;;5.90;3.87;;;6.70;93.50;;;6.44;64.74;94108.53;4972486;28;20454;-57
2021/12/11 00:40:19;;;;;;;4.80;3.73;;;6.70;93.50;;;6.40;64.86;94117.56;4975459;28;20485;-57
2021/12/11 00:42:49;;;;;;;6.90;4.47;;;6.60;93.50;;;6.35;65.33;94114.53;4973405;28;20475;-57
2021/12/11 00:45:19;;;;;;;7.67;4.60;;;6.60;93.70;;;6.31;65.15;94107.94;4975024;28;20455;-56
2021/12/11 00:47:49;;;;;;;11.90;6.57;;;6.50;93.80;;;6.32;64.94;94106.97;4971816;28;20448;-57
2021/12/11 00:50:18;;;;;;;9.30;6.70;;;6.50;93.90;;;6.28;65.91;94097.75;4975522;28;20817;-57
2021/12/11 00:52:46;;;;;;;12.17;7.00;;;6.50;93.90;;;6.27;65.39;94093.47;4969598;28;20973;-58
2021/12/11 00:55:21;;;;;;;9.60;7.57;;;6.50;94.00;;;6.25;65.36;94079.72;4972706;28;20936;-58
2021/12/11 00:57:49;;;;;;;9.10;6.40;;;6.40;94.00;;;6.24;65.75;94088.50;4971587;28;20439;-57
2021/12/11 01:00:21;;;;;;;14.43;7.40;;;6.40;94.10;;;6.21;65.57;94096.63;4971744;28;20487;-57
2021/12/11 01:02:51;;;;;;;15.10;7.30;;;6.40;94.20;;;6.16;65.66;94096.19;4972540;28;20963;-57
2021/12/11 01:05:18;;;;;;;11.77;7.10;;;6.40;94.20;;;6.07;66.34;94106.47;4976086;28;20452;-58
2021/12/11 01:07:46;;;;;;;10.40;6.83;;;6.30;94.30;;;6.00;66.15;94094.91;4976714;28;20463;-56
2021/12/11 01:10:16;;;;;;;12.27;7.30;;;6.20;94.40;;;5.95;66.73;94077.94;4974861;28;20459;-58
2021/12/11 01:12:50;;;;;;;12.20;7.63;;;6.20;94.60;;;5.89;66.92;94085.34;4976260;28;20448;-57
2021/12/11 01:15:20;;;;;;;9.93;7.73;;;6.10;94.70;;;5.83;66.39;94082.44;4971523;28;20447;-57
2021/12/11 01:18:00;;;;;;;15.37;6.83;;;6.10;94.80;;;5.75;67.38;94083.09;4971442;28;20459;-58
2021/12/11 01:20:45;;;;;;;14.70;6.77;;;6.00;95.00;;;5.66;66.89;94081.25;4968447;28;20481;-57
2021/12/11 01:23:27;;;;;;;13.17;7.70;;;5.90;94.90;;;5.58;67.31;94076.69;4972940;28;20447;-56
2021/12/11 01:25:54;;;;;;;13.27;7.90;;;5.80;95.20;;;5.53;67.20;94091.88;4974430;28;20478;-57
2021/12/11 01:28:23;;;;;;;11.60;7.10;;;5.80;95.20;;;5.47;67.44;94090.63;4977488;28;20462;-58
2021/12/11 01:30:50;;;;;;;12.47;7.37;;;5.70;95.30;;;5.44;67.31;94087.44;4979285;28;21064;-55
2021/12/11 01:33:17;;;;;;;15.40;9.60;;;5.60;95.30;;;5.41;67.60;94093.75;4976684;28;20456;-57
2021/12/11 01:35:44;;;;;;;11.10;7.57;;;5.60;95.70;;;5.35;67.71;94084.63;4971425;28;20478;-56
2021/12/11 01:38:13;;;;;;;10.60;7.20;;;5.60;95.50;;;5.32;67.69;94084.91;4974782;28;20501;-57
2021/12/11 01:40:41;;;;;;;15.50;6.80;;;5.60;95.70;;;5.30;68.01;94081.59;4971296;28;20499;-58
2021/12/11 01:43:08;;;;;;;8.80;5.87;;;5.50;95.70;;;5.28;67.98;94077.47;4971187;28;20452;-58
2021/12/11 01:45:42;;;;;;;10.27;4.40;;;5.50;95.60;;;5.28;67.69;94078.28;4972000;28;21019;-57
2021/12/11 01:48:09;;;;;;;5.20;4.30;;;5.50;95.70;;;5.29;67.72;94077.31;4974052;28;20455;-56
2021/12/11 01:50:39;;;;;;;4.30;3.33;;;5.50;95.60;;;5.31;67.44;94077.19;4972609;28;21069;-56
2021/12/11 01:53:08;;;;;;;4.23;3.00;;;5.50;95.50;;;5.30;67.53;94071.16;4970880;28;20952;-57
2021/12/11 01:55:49;;;;;;;2.83;2.63;;;5.50;95.30;;;5.29;67.39;94066.09;4972952;28;20478;-58
2021/12/11 01:58:24;;;;;;;2.83;2.60;;;5.50;95.30;;;5.29;67.34;94074.72;4974380;28;20478;-56
2021/12/11 02:00:56;;;;;;;2.73;2.37;;;5.50;95.10;;;5.29;67.24;94066.09;4972269;28;20498;-56
2021/12/11 02:03:28;;;;;;;2.97;2.20;;;5.50;95.00;;;5.30;66.52;94065.97;4967855;28;20459;-59
2021/12/11 02:05:56;;;;;;;4.50;2.40;;;5.50;94.80;;;5.30;66.87;94065.09;4969793;28;20475;-57
2021/12/11 02:08:32;;;;;;;2.50;2.30;;;5.60;94.90;;;5.31;66.64;94064.16;4972259;28;20456;-56
2021/12/11 02:11:00;;;;;;;2.60;2.40;;;5.60;94.80;;;5.31;66.78;94057.16;4971423;28;20478;-56
2021/12/11 02:13:38;;;;;;;2.70;2.50;;;5.60;94.80;;;5.32;66.57;94058.00;4973303;28;20451;-57
2021/12/11 02:16:07;;;;;;;3.00;2.80;;;5.60;94.80;;;5.31;66.93;94053.75;4970854;28;20820;-59
2021/12/11 02:18:43;;;;;;;2.83;2.63;;;5.60;94.80;;;5.29;66.77;94051.25;4973499;28;20455;-58
2021/12/11 02:21:12;;;;;;;2.70;2.50;;;5.60;94.80;;;5.31;66.94;94054.56;4972828;28;20471;-58
2021/12/11 02:23:41;;;;;;;2.90;2.67;;;5.60;94.90;;;5.33;66.60;94064.84;4972671;28;20463;-57
2021/12/11 02:26:15;;;;;;;3.30;3.10;;;5.60;94.90;;;5.35;66.48;94068.19;4973014;28;20470;-58
2021/12/11 02:28:45;;;;;;;3.10;2.77;;;5.60;94.90;;;5.35;66.95;94069.00;4977723;28;20534;-58
2021/12/11 02:31:16;;;;;;;3.30;3.00;;;5.60;94.90;;;5.35;66.97;94078.59;4976571;28;20487;-56
2021/12/11 02:33:45;;;;;;;4.37;2.50;;;5.60;94.90;;;5.34;66.54;94075.16;4972703;28;20447;-55
2021/12/11 02:36:14;;;;;;;2.30;2.10;;;5.60;94.90;;;5.33;66.83;94072.69;4972378;28;20581;-57
2021/12/11 02:38:47;;;;;;;3.10;2.80;;;5.60;94.90;;;5.34;67.03;94066.53;4974374;28;20526;-57
2021/12/11 02:41:20;;;;;;;3.93;2.47;;;5.60;95.00;;;5.33;66.52;94060.50;4970941;28;20463;-57
2021/12/11 02:43:50;;;;;;;3.67;2.50;;;5.60;95.00;;;5.33;66.84;94055.28;4974897;28;20538;-57
2021/12/11 02:46:21;;;;;;;5.70;2.70;;;5.60;95.00;;;5.33;66.86;94060.50;4979042;28;20471;-58
2021/12/11 02:48:52;;;;;;;2.50;2.30;;;5.60;95.00;;;5.29;66.67;94051.25;4976372;28;20448;-57
2021/12/11 02:51:22;;;;;;;5.23;2.83;;;5.50;95.00;;;5.28;66.90;94048.78;4968136;28;20471;-57
2021/12/11 02:53:54;;;;;;;4.63;3.37;;;5.50;95.00;;;5.29;67.55;94048.66;4967956;28;20965;-56
2021/12/11 02:56:23;;;;;;;6.73;3.93;;;5.50;95.10;;;5.30;67.22;94054.69;4970430;28;20483;-57
2021/12/11 02:58:53;;;;;;;2.83;2.57;;;5.60;95.10;;;5.32;66.80;94047.56;4972217;28;20463;-58
2021/12/11 03:01:26;;;;;;;5.83;3.47;;;5.50;95.10;;;5.34;67.02;94041.25;4971989;28;20492;-58
2021/12/11 03:04:01;;;;;;;4.07;3.67;;;5.60;95.20;;;5.38;67.24;94034.84;4972345;28;20465;-59
2021/12/11 03:06:37;;;;;;;4.80;2.97;;;5.60;95.20;;;5.42;67.18;94042.41;4970650;28;20477;-57
2021/12/11 03:09:05;;;;;;;3.07;2.73;;;5.60;95.20;;;5.45;67.31;94045.56;4968297;28;20447;-57
2021/12/11 03:11:33;;;;;;;15.53;3.23;;;5.70;95.30;;;5.49;67.34;94040.94;4969660;28;20544;-57
2021/12/11 03:14:03;;;;;;;3.73;3.43;;;5.70;95.40;;;5.53;67.24;94040.56;4976095;28;20885;-57
2021/12/11 03:16:33;;;;;;;3.40;3.17;;;5.70;95.40;;;5.57;67.15;94047.16;4981073;28;20903;-56
2021/12/11 03:19:01;;;;;;;5.73;3.60;;;5.80;95.30;;;5.60;67.15;94047.88;4974579;28;20455;-58
2021/12/11 03:21:28;;;;;;;5.53;3.93;;;5.80;95.20;;;5.61;66.67;94039.91;4974684;28;20483;-57
2021/12/11 03:23:56;;;;;;;3.73;3.40;;;5.80;95.10;;;5.61;66.57;94037.31;4975541;28;20485;-56
2021/12/11 03:26:24;;;;;;;9.43;5.30;;;5.80;95.00;;;5.61;66.96;94036.44;4973957;28;20479;-57
2021/12/11 03:28:52;;;;;;;11.80;7.90;;;5.80;95.00;;;5.61;66.81;94024.25;4978007;28;20455;-59
2021/12/11 03:31:19;;;;;;;11.93;7.67;;;5.80;95.10;;;5.62;67.19;94038.13;4974340;28;20486;-58
2021/12/11 03:33:49;;;;;;;10.70;7.70;;;5.80;95.20;;;5.62;66.76;94019.84;4978798;28;20999;-58
2021/12/11 03:36:19;;;;;;;9.30;6.60;;;5.80;95.20;;;5.62;67.21;94017.25;4980440;28;20468;-59
2021/12/11 03:38:49;;;;;;;7.67;5.27;;;5.80;95.20;;;5.65;67.05;94011.75;4974933;28;20525;-59
2021/12/11 03:41:17;;;;;;;5.90;4.70;;;5.80;95.30;;;5.64;67.15;94005.72;4972172;28;20605;-58
2021/12/11 03:43:46;;;;;;;9.27;5.83;;;5.80;95.40;;;5.66;67.36;93992.56;4973858;28;20457;-58
2021/12/11 03:46:13;;;;;;;7.27;5.40;;;5.80;95.40;;;5.68;66.91;93996.66;4976860;28;20873;-56
2021/12/11 03:48:44;;;;;;;8.13;5.00;;;5.90;95.50;;;5.68;67.51;93996.66;4975653;28;20459;-58
2021/12/11 03:51:13;;;;;;;5.20;4.13;;;5.90;95.50;;;5.67;67.57;93992.44;4976749;28;20498;-56
2021/12/11 03:53:41;;;;;;;4.37;3.10;;;5.90;95.60;;;5.69;67.19;94000.13;4973396;28;20456;-57
2021/12/11 03:56:11;;;;;;;3.17;2.97;;;5.90;95.40;;;5.65;67.53;94002.16;4979473;28;20482;-56
2021/12/11 03:58:39;;;;;;;3.33;3.03;;;5.90;95.50;;;5.60;67.15;94012.16;4978106;28;20455;-56
2021/12/11 04:01:13;;;;;;;4.23;3.50;;;5.80;95.50;;;5.56;67.39;94013.38;4972682;28;20503;-57
2021/12/11 04:03:41;;;;;;;2.90;2.67;;;5.80;95.50;;;5.53;67.45;94027.50;4975136;28;20498;-57
2021/12/11 04:06:09;;;;;;;4.13;3.30;;;5.80;95.70;;;5.55;67.60;94032.59;4972971;28;20483;-58
2021/12/11 04:08:40;;;;;;;5.23;3.17;;;5.80;95.80;;;5.56;67.94;94044.66;4974034;28;21123;-57
2021/12/11 04:11:08;;;;;;;2.80;2.60;;;5.80;95.80;;;5.58;67.78;94050.59;4976063;28;20507;-56
2021/12/11 04:13:36;;;;;;;3.43;3.17;;;5.80;95.80;;;5.59;67.75;94046.19;4976899;28;20452;-57
2021/12/11 04:16:04;;;;;;;2.87;2.67;;;5.80;95.90;;;5.62;68.10;94038.13;4979320;28;20541;-57
2021/12/11 04:18:32;;;;;;;3.00;2.77;;;5.80;96.00;;;5.64;67.91;94037.03;4979476;28;20452;-57
2021/12/11 04:21:00;;;;;;;4.07;2.80;;;5.80;96.00;;;5.72;68.30;94031.16;4976475;28;20499;-58
2021/12/11 04:23:27;;;;;;;3.73;3.43;;;5.90;96.10;;;5.77;68.14;94028.97;4978615;28;20467;-58
2021/12/11 04:25:55;;;;;;;3.37;3.10;;;5.90;96.10;;;5.83;68.14;94027.63;4979476;28;20474;-58
2021/12/11 04:28:23;;;;;;;3.40;3.20;;;6.00;96.20;;;5.87;68.27;94024.63;4978925;28;20538;-58
2021/12/11 04:30:52;;;;;;;3.70;3.27;;;6.00;96.00;;;5.92;67.80;94026.84;4972299;28;20468;-57
2021/12/11 04:33:20;;;;;;;2.87;2.67;;;6.10;96.10;;;5.96;68.11;94020.38;4976468;28;20451;-58
2021/12/11 04:35:49;;;;;;;4.70;2.80;;;6.10;95.90;;;6.00;67.67;94016.59;4975254;28;20482;-58
2021/12/11 04:38:16;;;;;;;3.27;3.07;;;6.20;96.00;;;6.03;67.85;94011.09;4973034;28;20454;-58
2021/12/11 04:40:48;;;;;;;3.53;3.30;;;6.20;96.00;;;6.06;67.79;94000.41;4972125;28;20498;-59
2021/12/11 04:43:18;;;;;;;3.37;3.17;;;6.30;96.00;;;6.07;67.75;93994.22;4979260;28;21028;-57
2021/12/11 04:45:48;;;;;;;5.67;3.37;;;6.30;96.00;;;6.05;67.81;93996.13;4974612;28;20546;-57
2021/12/11 04:48:21;;;;;;;3.77;3.37;;;6.30;96.00;;;6.02;67.88;93999.00;4976174;28;20460;-58
2021/12/11 04:50:56;;;;;;;5.00;3.27;;;6.20;95.90;;;6.01;67.56;93991.31;4971151;28;20463;-57
2021/12/11 04:53:38;;;;;;;3.63;3.33;;;6.20;96.00;;;5.98;67.88;93992.41;4978716;28;20534;-57
2021/12/11 04:56:30;;;;;;;5.57;3.17;;;6.20;96.00;;;5.97;67.87;94003.81;4975439;28;20486;-58
2021/12/11 04:59:18;;;;;;;4.90;3.80;;;6.20;96.00;;;5.96;68.15;93990.84;4974402;28;20531;-56
2021/12/11 05:01:55;;;;;;;4.33;3.37;;;6.20;96.30;;;5.98;68.50;94002.00;4975713;28;20879;-58
2021/12/11 05:04:43;;;;;;;3.37;3.17;;;6.20;96.40;;;5.96;68.95;94007.34;4976977;28;20513;-59
2021/12/11 05:07:24;;;;;;;4.40;3.37;;;6.20;96.60;;;5.96;68.05;93986.47;4976919;28;20991;-58
2021/12/11 05:09:57;;;;;;;3.20;2.80;;;6.20;96.50;;;5.96;68.33;93996.91;4973369;28;20455;-58
2021/12/11 05:12:34;;;;;;;5.80;2.73;;;6.20;96.50;;;5.95;68.65;94012.69;4979606;28;20878;-58
2021/12/11 05:15:03;;;;;;;3.43;2.80;;;6.20;96.70;;;5.91;68.91;93999.91;4981264;28;20500;-58
2021/12/11 05:17:30;;;;;;;3.77;2.90;;;6.10;96.60;;;5.87;69.06;94002.91;4972371;28;20471;-58
2021/12/11 05:19:57;;;;;;;4.10;2.43;;;6.10;96.70;;;5.84;68.95;93996.19;4971835;28;20495;-57
2021/12/11 05:22:26;;;;;;;2.50;2.30;;;6.10;96.80;;;5.82;69.27;94003.31;4975337;28;20479;-57
2021/12/11 05:24:56;;;;;;;2.80;2.60;;;6.10;96.90;;;5.80;69.18;94005.22;4974309;28;20479;-58
2021/12/11 05:27:24;;;;;;;2.70;2.50;;;6.00;96.90;;;5.77;69.80;94005.50;4972233;28;20522;-58
2021/12/11 05:29:51;;;;;;;3.43;2.20;;;6.00;97.10;;;5.77;69.69;94010.72;4972897;28;20456;-57
2021/12/11 05:32:22;;;;;;;2.80;2.70;;;6.00;97.30;;;5.77;69.78;94002.88;4975681;28;20490;-57
2021/12/11 05:34:50;;;;;;;3.37;3.07;;;6.00;97.40;;;5.79;69.95;94002.75;4977938;28;20451;-58
2021/12/11 05:37:17;;;;;;;4.50;3.43;;;6.00;97.40;;;5.82;70.11;94000.69;4972669;28;20471;-56
2021/12/11 05:39:46;;;;;;;2.70;2.60;;;6.00;97.50;;;5.86;69.86;94003.88;4972805;28;21046;-58
2021/12/11 05:42:13;;;;;;;3.47;3.20;;;6.10;97.70;;;5.90;69.67;94002.66;4966916;28;20489;-57
2021/12/11 05:44:41;;;;;;;3.67;3.33;;;6.10;97.60;;;5.92;69.64;94009.41;4969550;28;20510;-58
2021/12/11 05:47:08;;;;;;;4.97;4.50;;;6.10;97.50;;;5.96;70.21;93991.69;4972573;28;20483;-58
2021/12/11 05:49:36;;;;;;;9.20;6.30;;;6.10;97.70;;;6.00;70.08;94003.53;4971846;28;20482;-58
2021/12/11 05:52:05;;;;;;;12.10;6.23;;;6.20;97.90;;;6.07;70.74;94009.03;4971012;28;21367;-58
2021/12/11 05:54:32;;;;;;;12.17;7.30;;;6.20;98.00;;;6.12;70.12;94013.88;4971432;28;20452;-56
2021/12/11 05:57:04;;;;;;;7.70;6.87;;;6.30;98.00;;;6.15;70.12;94009.22;4969445;28;20490;-57
2021/12/11 05:59:31;;;;;;;10.23;7.63;;;6.30;98.20;;;6.19;70.74;94000.13;4971371;28;20546;-58
2021/12/11 06:02:01;;;;;;;12.10;7.60;;;6.40;98.10;;;6.24;70.55;94018.00;4970704;28;20491;-58
2021/12/11 06:04:32;;;;;;;18.70;9.17;;;6.40;98.20;;;6.26;70.37;94014.31;4967958;28;20482;-57
2021/12/11 06:07:01;;;;;;;22.70;12.60;;;6.40;98.10;;;6.27;70.31;94020.34;4971437;28;20479;-58
2021/12/11 06:09:29;;;;;;;17.23;11.20;;;6.40;98.10;;;6.28;69.67;94025.44;4970600;28;20448;-56
2021/12/11 06:11:59;;;;;;;14.00;10.63;;;6.40;97.90;;;6.27;69.95;94022.97;4971751;28;20793;-56
2021/12/11 06:14:28;;;;;;;17.00;10.83;;;6.40;97.70;;;6.26;70.01;94023.94;4971043;28;20452;-58
2021/12/11 06:16:57;;;;;;;14.60;8.70;;;6.40;97.70;;;6.26;70.28;94005.66;4973089;28;20497;-59
2021/12/11 06:19:26;;;;;;;11.53;8.23;;;6.40;97.70;;;6.25;69.88;94011.84;4975761;28;20499;-57
2021/12/11 06:21:54;;;;;;;15.87;8.67;;;6.40;97.80;;;6.24;69.56;94023.22;4978775;28;20502;-58
2021/12/11 06:24:21;;;;;;;15.60;10.13;;;6.40;97.80;;;6.24;69.72;94020.63;4971456;28;20452;-56
2021/12/11 06:26:49;;;;;;;14.80;8.40;;;6.40;97.80;;;6.24;69.97;94020.63;4972070;28;20853;-58
2021/12/11 06:29:16;;;;;;;25.97;16.83;;;6.40;97.70;;;6.25;69.87;94030.13;4970832;28;20456;-57
2021/12/11 06:31:45;;;;;;;17.10;9.03;;;6.40;97.60;;;6.23;69.70;94032.88;4970057;28;20483;-57
2021/12/11 06:34:12;;;;;;;11.97;8.00;;;6.40;97.60;;;6.23;69.66;94027.63;4973212;28;20455;-59
2021/12/11 06:36:40;;;;;;;15.23;10.67;;;6.40;97.50;;;6.25;69.40;94024.91;4974965;28;20482;-58
2021/12/11 06:39:10;;;;;;;21.80;11.87;;;6.40;97.60;;;6.28;69.56;94019.41;4974197;28;20893;-58
2021/12/11 06:41:40;;;;;;;19.80;11.80;;;6.40;97.60;;;6.31;69.41;94029.59;4976429;28;20499;-57
2021/12/11 06:44:08;;;;;;;16.47;10.83;;;6.50;97.60;;;6.35;69.20;94023.13;4973947;28;20509;-57
2021/12/11 06:46:35;;;;;;;16.17;9.83;;;6.50;97.50;;;6.36;69.60;94026.56;4974126;28;20467;-58
2021/12/11 06:49:05;;;;;;;15.73;8.93;;;6.50;97.40;;;6.38;68.95;94022.88;4968777;28;20458;-59
2021/12/11 06:51:32;;;;;;;12.53;8.40;;;6.50;97.40;;;6.40;69.66;94028.78;4969808;28;20557;-58
2021/12/11 06:54:02;;;;;;;15.57;9.10;;;6.60;97.50;;;6.44;69.24;94017.09;4970262;28;20459;-57
2021/12/11 06:56:30;;;;;;;11.93;7.70;;;6.60;97.50;;;6.47;68.79;94015.97;4971255;28;20859;-58
2021/12/11 06:58:57;;;;;;;10.97;7.47;;;6.70;97.40;;;6.50;69.29;94005.25;4974005;28;20510;-58
2021/12/11 07:01:26;;;;;;;14.80;8.57;;;6.70;97.30;;;6.55;69.15;94016.16;4971718;28;20498;-58
2021/12/11 07:03:54;;;;;;;14.87;7.50;;;6.70;97.40;;;6.59;68.95;94012.28;4972589;28;20475;-58
2021/12/11 07:06:23;;;;;;;11.57;7.93;;;6.70;97.30;;;6.64;68.58;94009.25;4970246;28;20487;-56
2021/12/11 07:08:51;;;;;;;14.93;10.10;;;6.80;97.20;;;6.70;68.72;94006.09;4970366;28;20459;-57
2021/12/11 07:11:18;;;;;;;11.10;7.17;;;6.80;97.30;;;6.75;69.38;94011.72;4977056;28;20478;-58
2021/12/11 07:13:45;;;;;;;35.03;12.87;;;6.90;97.60;;;6.79;68.49;93992.22;4972687;28;20986;-57
2021/12/11 07:16:13;;;;;;;17.47;11.93;;;6.90;97.20;;;6.82;69.06;94001.56;4974064;28;21059;-56
2021/12/11 07:18:41;;;;;;;13.73;9.40;;;6.90;97.10;;;6.85;68.48;94001.28;4967315;28;20993;-57
2021/12/11 07:21:08;;;;;;;13.10;9.03;;;7.00;97.20;;;6.87;68.85;93993.31;4964609;28;21153;-57
2021/12/11 07:23:37;;;;;;;9.97;8.97;;;7.00;97.20;;;6.89;68.37;93994.00;4972870;28;20463;-56
2021/12/11 07:26:12;;;;;;;23.20;9.80;;;7.00;97.10;;;6.92;68.45;93986.69;4975265;28;20959;-57
2021/12/11 07:28:40;;;;;;;14.77;8.80;;;7.10;97.10;;;7.18;68.61;93989.53;4973248;28;20494;-57
2021/12/11 07:31:07;;;;;;;13.93;7.70;;;7.30;97.50;;;7.85;68.63;93986.84;4971889;28;20482;-57
2021/12/11 07:33:34;;;;;;;10.20;8.27;;;7.90;97.50;;;8.82;66.85;93987.19;4969323;28;20459;-58
2021/12/11 07:36:02;;;;;;;15.37;7.73;;;8.90;96.90;;;9.84;64.58;93987.53;4969802;28;20475;-56
2021/12/11 07:38:29;;;;;;;18.83;9.20;;;9.80;95.60;;;10.62;62.17;93989.13;4970551;28;20460;-57
2021/12/11 07:41:00;;;;;;;12.87;8.70;;;10.70;93.10;;;11.25;60.40;93981.59;4969363;28;20498;-57
2021/12/11 07:43:28;;;;;;;12.37;7.80;;;11.30;91.80;;;11.78;58.98;93982.00;4968018;28;20451;-59
2021/12/11 07:45:56;;;;;;;11.77;7.70;;;11.90;90.70;;;12.16;58.42;93985.69;4966749;28;20909;-59
2021/12/11 07:48:23;;;;;;;15.97;8.40;;;12.30;89.50;;;12.42;56.57;93971.38;4970477;28;20790;-60
2021/12/11 07:50:51;;;;;;;14.43;8.70;;;12.50;87.10;;;12.40;56.38;93969.91;4971199;28;21029;-57
2021/12/11 07:53:21;;;;;;;10.23;8.00;;;12.50;84.80;;;12.20;54.64;93965.88;4967932;28;20987;-58
2021/12/11 07:55:49;;;;;;;13.97;9.30;;;12.30;82.20;;;11.90;55.80;93980.63;4973508;28;20475;-59
2021/12/11 07:58:19;;;;;;;13.83;7.80;;;12.10;82.90;;;11.54;57.47;93967.91;4973927;28;20459;-60
2021/12/11 08:00:47;;;;;;;11.70;8.73;;;11.80;84.90;;;11.24;58.39;93964.97;4980547;28;20471;-57
2021/12/11 08:03:14;;;;;;;11.83;8.67;;;11.50;86.30;;;11.02;58.63;93969.09;4976521;28;20479;-59
2021/12/11 08:05:43;;;;;;;12.57;7.90;;;11.20;87.00;;;10.80;58.70;93981.09;4971205;28;20542;-59
2021/12/11 08:08:11;;;;;;;16.10;9.80;;;11.00;86.70;;;10.61;59.25;93979.56;4973015;28;20879;-58
2021/12/11 08:10:39;;;;;;;14.00;11.20;;;10.80;87.90;;;10.49;59.66;93978.28;4975235;28;20831;-58
2021/12/11 08:13:07;;;;;;;10.43;8.93;;;10.70;88.40;;;10.33;59.90;93965.88;4974791;28;20550;-61
2021/12/11 08:15:36;;;;;;;19.53;9.57;;;10.50;88.60;;;10.21;60.25;93968.78;4973289;28;20476;-58
2021/12/11 08:18:04;;;;;;;13.17;9.23;;;10.40;89.40;;;10.10;60.19;93976.97;4971096;28;20451;-57
2021/12/11 08:20:32;;;;;;;16.13;10.47;;;10.30;89.60;;;10.02;60.26;93982.19;4979979;28;20466;-57
2021/12/11 08:23:00;;;;;;;20.47;11.40;;;10.20;89.30;;;9.96;60.34;93974.94;4971085;28;20458;-58
2021/12/11 08:25:30;;;;;;;16.03;10.27;;;10.10;89.60;;;9.94;60.73;93977.72;4971194;28;20463;-60
2021/12/11 08:27:58;;;;;;;16.83;11.00;;;10.10;90.20;;;9.93;60.82;93977.88;4971645;28;20467;-56
2021/12/11 08:30:28;;;;;;;13.70;11.13;;;10.00;90.20;;;9.89;60.58;93968.69;4972419;28;20455;-61
2021/12/11 08:32:56;;;;;;;17.60;11.10;;;10.00;90.10;;;9.82;60.96;93971.09;4970689;28;21193;-59
2021/12/11 08:35:24;;;;;;;18.40;10.93;;;10.00;90.20;;;9.79;60.89;93968.78;4971078;28;20449;-59
2021/12/11 08:37:52;;;;;;;20.80;12.77;;;9.90;90.60;;;9.97;60.96;93961.66;4972204;28;20456;-59
2021/12/11 08:40:22;;;;;;;18.80;12.53;;;10.00;90.30;;;10.31;60.26;93968.66;4975010;28;20462;-59
2021/12/11 08:42:50;;;;;;;21.10;14.73;;;10.20;90.50;;;10.59;59.96;93960.53;4974590;28;20495;-59
2021/12/11 08:45:23;;;;;;;27.67;16.87;;;10.50;90.30;;;10.73;59.62;93964.31;4973875;28;20455;-59
2021/12/11 08:47:53;;;;;;;30.97;17.20;;;10.70;90.00;;;10.79;59.23;93958.41;4975921;28;21053;-58
2021/12/11 08:50:25;;;;;;;37.23;20.53;;;10.80;89.60;;;10.79;58.69;93952.34;4978413;28;20452;-59
2021/12/11 08:52:52;;;;;;;36.73;21.37;;;10.80;88.80;;;10.73;58.94;93957.25;4971043;28;20447;-58
2021/12/11 08:55:23;;;;;;;36.43;20.73;;;10.80;88.80;;;10.69;59.03;93950.69;4969423;28;20467;-58
2021/12/11 08:57:51;;;;;;;37.30;20.27;;;10.70;88.10;;;10.67;58.97;93952.63;4968960;28;20976;-58
2021/12/11 09:00:22;;;;;;;33.43;18.10;;;10.70;88.10;;;10.71;58.74;93942.63;4975703;28;20455;-60
2021/12/11 09:02:52;;;;;;;29.20;15.33;;;10.70;87.50;;;10.83;58.26;93940.47;4973334;28;20482;-59
2021/12/11 09:05:25;;;;;;;17.87;10.00;;;10.90;87.20;;;11.16;57.43;93936.03;4974173;28;20522;-58
2021/12/11 09:07:55;;;;;;;15.13;9.10;;;11.10;86.50;;;11.54;56.89;93933.66;4972004;28;20451;-59
2021/12/11 09:10:25;;;;;;;7.20;5.80;;;11.30;86.00;;;11.76;55.60;93926.84;4972324;28;20467;-59
2021/12/11 09:12:55;;;;;;;9.83;7.10;;;11.60;83.60;;;11.81;55.83;93923.69;4973778;28;20447;-58
2021/12/11 09:15:27;;;;;;;12.23;7.23;;;11.70;83.60;;;11.75;55.49;93924.38;4969133;28;20547;-58
2021/12/11 09:17:58;;;;;;;13.33;7.70;;;11.70;82.60;;;11.63;55.28;93916.00;4967480;28;20464;-58
2021/12/11 09:20:33;;;;;;;14.13;8.90;;;11.70;81.40;;;11.51;56.45;93918.19;4970043;28;20539;-56
2021/12/11 09:23:04;;;;;;;9.60;6.67;;;11.50;82.60;;;11.37;55.96;93913.59;4971450;28;20541;-56
2021/12/11 09:25:34;;;;;;;11.83;9.27;;;11.50;82.90;;;11.19;57.19;93906.75;4973368;28;20452;-56
2021/12/11 09:28:06;;;;;;;15.57;9.40;;;11.30;84.80;;;11.06;57.89;93912.53;4971563;28;20760;-56
2021/12/11 09:30:41;;;;;;;11.77;9.20;;;11.10;85.70;;;10.91;58.66;93907.09;4969905;28;20802;-57
2021/12/11 09:33:11;;;;;;;15.07;9.60;;;11.00;86.70;;;10.80;58.77;93896.09;4977060;28;20460;-56
2021/12/11 09:35:44;;;;;;;11.83;8.90;;;10.90;87.00;;;10.67;59.22;93896.59;4970392;28;20478;-56
2021/12/11 09:38:13;;;;;;;16.20;10.23;;;10.80;88.00;;;10.55;59.60;93891.66;4975278;28;20447;-55
2021/12/11 09:40:53;;;;;;;17.53;9.70;;;10.70;88.70;;;10.44;60.00;93893.78;4968685;28;20480;-57
2021/12/11 09:43:42;;;;;;;13.10;8.67;;;10.60;88.70;;;10.30;60.32;93888.19;4970307;28;20574;-57
2021/12/11 09:46:11;;;;;;;15.20;10.57;;;10.40;89.40;;;10.23;60.49;93889.81;4970148;28;20471;-57
2021/12/11 09:48:40;;;;;;;16.67;10.07;;;10.30;89.70;;;10.21;61.05;93883.91;4970140;28;20447;-57
2021/12/11 09:51:12;;;;;;;12.13;9.23;;;10.30;90.30;;;10.20;61.23;93887.50;4975464;28;20570;-55
2021/12/11 09:53:42;;;;;;;15.97;11.10;;;10.30;90.80;;;10.20;60.92;93887.50;4977385;28;20971;-57
2021/12/11 09:56:13;;;;;;;13.70;10.57;;;10.30;90.30;;;10.19;61.50;93893.72;4974914;28;20541;-58
2021/12/11 09:58:43;;;;;;;19.50;11.80;;;10.20;90.60;;;10.18;61.42;93873.69;4971828;28;20457;-59
2021/12/11 10:01:13;;;;;;;13.57;10.20;;;10.20;90.80;;;10.14;61.77;93867.94;4972107;28;20516;-57
2021/12/11 10:03:45;;;;;;;11.27;8.67;;;10.20;91.10;;;10.09;61.59;93870.22;4967412;28;20460;-58
2021/12/11 10:06:27;;;;;;;11.90;9.00;;;10.10;90.90;;;10.03;62.21;93865.63;4969578;28;20698;-58
2021/12/11 10:09:09;;;;;;;12.97;9.20;;;10.10;91.30;;;9.97;62.46;93866.25;4970023;28;21102;-58
2021/12/11 10:11:37;;;;;;;13.83;10.07;;;10.10;91.60;;;9.93;62.61;93865.78;4971942;28;20541;-56
2021/12/11 10:14:08;;;;;;;10.90;9.10;;;10.00;91.70;;;9.92;62.65;93860.69;4970608;28;20456;-57
2021/12/11 10:16:39;;;;;;;11.07;8.90;;;10.00;91.80;;;9.88;62.96;93857.53;4974368;28;20856;-57
2021/12/11 10:19:07;;;;;;;11.87;9.00;;;9.90;92.30;;;9.86;62.75;93864.75;4970482;28;20963;-56
2021/12/11 10:21:37;;;;;;;15.43;8.97;;;9.90;92.30;;;9.81;62.51;93867.88;4968210;28;20850;-57
2021/12/11 10:24:08;;;;;;;11.00;7.40;;;9.90;92.30;;;9.80;62.46;93865.41;4973045;28;20451;-59
2021/12/11 10:26:35;;;;;;;14.53;8.17;;;9.90;92.30;;;9.80;62.94;93862.78;4962538;28;20506;-58
2021/12/11 10:29:09;;;;;;;9.60;7.50;;;9.90;92.50;;;9.80;62.70;93865.41;4970491;28;20836;-58
2021/12/11 10:31:39;;;;;;;8.33;7.10;;;9.90;92.30;;;9.77;63.08;93861.28;4964279;28;20472;-59
2021/12/11 10:34:08;;;;;;;10.83;7.57;;;9.90;92.50;;;9.78;63.47;93856.88;4970170;28;20458;-58
2021/12/11 10:36:39;;;;;;;9.50;7.97;;;9.80;93.10;;;9.79;63.66;93855.88;4969352;28;20607;-59